sensor_id;sensor_type;location;lat;lon;timestamp;pressure;altitude;pressure_sealevel;temperature;humidity
37068;BME280;22982;42.848;25.468;2023-01-31T00:03:29;95639.41;;;-4.03;100.00
37068;BME280;22982;42.848;25.468;2023-01-31T00:08:31;95644.63;;;-4.09;100.00
37068;BME280;22982;42.848;25.468;2023-01-31T00:13:34;95662.25;;;-3.85;100.00
37068;BME280;22982;42.848;25.468;2023-01-31T00:18:37;95675.56;;;-3.61;100.00
37068;BME280;22982;42.848;25.468;2023-01-31T00:23:41;95674.94;;;-3.19;100.00
37068;BME280;22982;42.848;25.468;2023-01-31T00:28:46;95654.97;;;-3.02;100.00
37068;BME280;22982;42.848;25.468;2023-01-31T00:33:50;95658.53;;;-2.62;100.00
37068;BME280;22982;42.848;25.468;2023-01-31T00:38:55;95657.16;;;-2.35;100.00
37068;BME280;22982;42.848;25.468;2023-01-31T00:43:58;95669.09;;;-1.89;100.00
37068;BME280;22982;42.848;25.468;2023-01-31T00:49:00;95638.50;;;-1.61;96.00
37068;BME280;22982;42.848;25.468;2023-01-31T00:54:03;95660.47;;;-1.11;94.68
37068;BME280;22982;42.848;25.468;2023-01-31T00:59:05;95666.81;;;-0.90;93.70
37068;BME280;22982;42.848;25.468;2023-01-31T01:04:11;95667.44;;;-0.81;95.80
37068;BME280;22982;42.848;25.468;2023-01-31T01:09:13;95632.22;;;-0.80;97.11
37068;BME280;22982;42.848;25.468;2023-01-31T01:14:15;95632.22;;;-0.80;99.22
37068;BME280;22982;42.848;25.468;2023-01-31T01:19:18;95630.38;;;-0.75;100.00
37068;BME280;22982;42.848;25.468;2023-01-31T01:24:21;95643.09;;;-0.69;100.00
37068;BME280;22982;42.848;25.468;2023-01-31T01:29:23;95638.56;;;-0.59;100.00
37068;BME280;22982;42.848;25.468;2023-01-31T01:34:25;95667.38;;;-0.45;100.00
37068;BME280;22982;42.848;25.468;2023-01-31T01:39:28;95662.47;;;-0.54;100.00
37068;BME280;22982;42.848;25.468;2023-01-31T01:45:02;95666.94;;;-0.62;100.00
37068;BME280;22982;42.848;25.468;2023-01-31T01:50:07;95658.88;;;-0.81;100.00
37068;BME280;22982;42.848;25.468;2023-01-31T01:55:20;95644.22;;;-0.79;100.00
37068;BME280;22982;42.848;25.468;2023-01-31T02:00:27;95651.06;;;-0.78;100.00
37068;BME280;22982;42.848;25.468;2023-01-31T02:05:38;95645.28;;;-0.53;100.00
37068;BME280;22982;42.848;25.468;2023-01-31T02:16:40;95619.53;;;-0.24;100.00
37068;BME280;22982;42.848;25.468;2023-01-31T02:22:08;95608.44;;;-0.26;100.00
37068;BME280;22982;42.848;25.468;2023-01-31T02:32:54;95628.00;;;-0.18;100.00
37068;BME280;22982;42.848;25.468;2023-01-31T02:49:07;95609.84;;;0.14;89.48
37068;BME280;22982;42.848;25.468;2023-01-31T02:54:18;95616.72;;;0.44;87.32
37068;BME280;22982;42.848;25.468;2023-01-31T02:59:23;95608.94;;;0.45;87.96
37068;BME280;22982;42.848;25.468;2023-01-31T03:04:31;95586.44;;;0.49;91.04
37068;BME280;22982;42.848;25.468;2023-01-31T03:15:52;95607.56;;;0.33;91.07
37068;BME280;22982;42.848;25.468;2023-01-31T03:21:09;95636.81;;;0.61;92.36
37068;BME280;22982;42.848;25.468;2023-01-31T03:26:15;95632.69;;;0.55;87.25
37068;BME280;22982;42.848;25.468;2023-01-31T03:31:40;95625.47;;;0.66;87.12
37068;BME280;22982;42.848;25.468;2023-01-31T03:36:57;95623.59;;;0.43;89.60
37068;BME280;22982;42.848;25.468;2023-01-31T03:47:44;95626.53;;;0.59;89.09
37068;BME280;22982;42.848;25.468;2023-01-31T03:53:24;95633.53;;;0.55;87.66
37068;BME280;22982;42.848;25.468;2023-01-31T03:58:28;95650.81;;;0.53;86.95
37068;BME280;22982;42.848;25.468;2023-01-31T04:03:39;95659.25;;;0.59;83.74
37068;BME280;22982;42.848;25.468;2023-01-31T04:08:44;95649.00;;;0.55;85.80
37068;BME280;22982;42.848;25.468;2023-01-31T04:13:49;95632.28;;;0.41;87.23
37068;BME280;22982;42.848;25.468;2023-01-31T04:18:51;95669.97;;;0.73;83.94
37068;BME280;22982;42.848;25.468;2023-01-31T04:23:53;95659.84;;;0.67;85.65
37068;BME280;22982;42.848;25.468;2023-01-31T04:28:55;95651.97;;;0.43;86.53
37068;BME280;22982;42.848;25.468;2023-01-31T04:33:58;95644.88;;;0.50;84.93
37068;BME280;22982;42.848;25.468;2023-01-31T04:39:00;95673.41;;;0.73;83.83
37068;BME280;22982;42.848;25.468;2023-01-31T04:44:02;95664.72;;;0.76;87.26
37068;BME280;22982;42.848;25.468;2023-01-31T04:49:04;95677.91;;;0.67;85.10
37068;BME280;22982;42.848;25.468;2023-01-31T04:54:07;95681.66;;;0.56;86.04
37068;BME280;22982;42.848;25.468;2023-01-31T04:59:09;95699.91;;;0.79;86.02
37068;BME280;22982;42.848;25.468;2023-01-31T05:04:11;95687.59;;;0.60;88.15
37068;BME280;22982;42.848;25.468;2023-01-31T05:09:14;95692.69;;;0.62;89.91
37068;BME280;22982;42.848;25.468;2023-01-31T05:14:16;95701.28;;;0.62;90.71
37068;BME280;22982;42.848;25.468;2023-01-31T05:19:19;95699.50;;;0.64;91.66
37068;BME280;22982;42.848;25.468;2023-01-31T05:24:22;95696.69;;;0.44;94.30
37068;BME280;22982;42.848;25.468;2023-01-31T05:29:25;95683.16;;;0.35;95.24
37068;BME280;22982;42.848;25.468;2023-01-31T05:34:28;95708.09;;;0.35;95.25
37068;BME280;22982;42.848;25.468;2023-01-31T05:39:33;95698.84;;;0.28;97.07
37068;BME280;22982;42.848;25.468;2023-01-31T05:44:36;95710.69;;;0.35;98.00
37068;BME280;22982;42.848;25.468;2023-01-31T05:49:39;95672.31;;;0.24;97.85
37068;BME280;22982;42.848;25.468;2023-01-31T05:54:41;95734.22;;;0.52;98.60
37068;BME280;22982;42.848;25.468;2023-01-31T05:59:43;95729.97;;;0.51;98.63
37068;BME280;22982;42.848;25.468;2023-01-31T06:04:45;95728.75;;;0.63;98.08
37068;BME280;22982;42.848;25.468;2023-01-31T06:09:48;95716.63;;;0.37;99.40
37068;BME280;22982;42.848;25.468;2023-01-31T06:14:50;95751.00;;;0.67;98.58
37068;BME280;22982;42.848;25.468;2023-01-31T06:19:52;95740.38;;;0.48;99.76
37068;BME280;22982;42.848;25.468;2023-01-31T06:24:54;95754.50;;;0.65;99.09
37068;BME280;22982;42.848;25.468;2023-01-31T06:29:57;95734.56;;;0.42;100.00
37068;BME280;22982;42.848;25.468;2023-01-31T06:34:59;95764.88;;;0.63;100.00
37068;BME280;22982;42.848;25.468;2023-01-31T06:40:02;95773.16;;;0.74;99.01
37068;BME280;22982;42.848;25.468;2023-01-31T06:45:04;95757.72;;;0.73;98.71
37068;BME280;22982;42.848;25.468;2023-01-31T06:50:08;95771.69;;;0.66;99.15
37068;BME280;22982;42.848;25.468;2023-01-31T06:55:11;95761.13;;;0.73;99.38
37068;BME280;22982;42.848;25.468;2023-01-31T07:00:13;95762.09;;;0.71;98.47
37068;BME280;22982;42.848;25.468;2023-01-31T07:05:16;95753.25;;;0.78;97.46
37068;BME280;22982;42.848;25.468;2023-01-31T07:10:19;95770.03;;;0.93;98.64
37068;BME280;22982;42.848;25.468;2023-01-31T07:15:21;95763.63;;;1.05;97.32
37068;BME280;22982;42.848;25.468;2023-01-31T07:20:24;95734.72;;;0.65;96.93
37068;BME280;22982;42.848;25.468;2023-01-31T07:25:26;95759.16;;;1.10;96.80
37068;BME280;22982;42.848;25.468;2023-01-31T07:30:29;95758.06;;;1.17;96.02
37068;BME280;22982;42.848;25.468;2023-01-31T07:35:32;95771.31;;;1.34;95.45
37068;BME280;22982;42.848;25.468;2023-01-31T07:40:34;95780.47;;;1.17;96.05
37068;BME280;22982;42.848;25.468;2023-01-31T07:45:38;95786.06;;;1.31;95.95
37068;BME280;22982;42.848;25.468;2023-01-31T07:50:40;95756.50;;;1.13;97.22
37068;BME280;22982;42.848;25.468;2023-01-31T07:55:43;95777.56;;;1.27;96.31
37068;BME280;22982;42.848;25.468;2023-01-31T08:00:48;95781.34;;;1.44;97.32
37068;BME280;22982;42.848;25.468;2023-01-31T08:06:10;95804.50;;;1.19;98.23
37068;BME280;22982;42.848;25.468;2023-01-31T08:11:13;95804.47;;;1.20;98.56
37068;BME280;22982;42.848;25.468;2023-01-31T08:16:15;95797.00;;;1.11;98.02
37068;BME280;22982;42.848;25.468;2023-01-31T08:21:18;95827.50;;;1.26;97.74
37068;BME280;22982;42.848;25.468;2023-01-31T08:26:21;95794.66;;;1.31;97.71
37068;BME280;22982;42.848;25.468;2023-01-31T08:31:25;95821.16;;;1.65;96.95
37068;BME280;22982;42.848;25.468;2023-01-31T08:36:29;95802.47;;;1.57;96.32
37068;BME280;22982;42.848;25.468;2023-01-31T08:41:37;95806.19;;;1.75;95.80
37068;BME280;22982;42.848;25.468;2023-01-31T08:46:40;95818.41;;;1.96;94.95
37068;BME280;22982;42.848;25.468;2023-01-31T08:51:43;95807.28;;;2.19;93.65
37068;BME280;22982;42.848;25.468;2023-01-31T08:56:46;95821.47;;;2.33;92.04
37068;BME280;22982;42.848;25.468;2023-01-31T09:01:48;95827.31;;;2.13;92.36
37068;BME280;22982;42.848;25.468;2023-01-31T09:06:50;95812.88;;;1.80;94.05
37068;BME280;22982;42.848;25.468;2023-01-31T09:11:52;95809.91;;;1.92;93.14
37068;BME280;22982;42.848;25.468;2023-01-31T09:16:55;95817.22;;;1.80;94.14
37068;BME280;22982;42.848;25.468;2023-01-31T09:21:57;95829.47;;;2.00;93.54
37068;BME280;22982;42.848;25.468;2023-01-31T09:26:59;95823.63;;;2.20;92.43
37068;BME280;22982;42.848;25.468;2023-01-31T09:32:01;95814.72;;;1.77;94.79
37068;BME280;22982;42.848;25.468;2023-01-31T09:37:04;95810.38;;;2.04;93.15
37068;BME280;22982;42.848;25.468;2023-01-31T09:47:48;95847.72;;;1.95;94.66
37068;BME280;22982;42.848;25.468;2023-01-31T09:52:52;95821.34;;;2.10;93.77
37068;BME280;22982;42.848;25.468;2023-01-31T10:13:52;95803.94;;;2.41;91.27
37068;BME280;22982;42.848;25.468;2023-01-31T10:19:10;95793.34;;;2.47;91.46
37068;BME280;22982;42.848;25.468;2023-01-31T10:29:36;95796.34;;;2.60;90.54
37068;BME280;22982;42.848;25.468;2023-01-31T10:34:48;95763.56;;;2.37;90.16
37068;BME280;22982;42.848;25.468;2023-01-31T10:39:59;95766.38;;;2.29;91.28
37068;BME280;22982;42.848;25.468;2023-01-31T10:45:21;95799.84;;;2.59;91.64
37068;BME280;22982;42.848;25.468;2023-01-31T10:50:32;95790.00;;;2.91;90.58
37068;BME280;22982;42.848;25.468;2023-01-31T10:55:47;95778.06;;;3.10;86.94
37068;BME280;22982;42.848;25.468;2023-01-31T11:00:53;95765.56;;;2.76;89.14
37068;BME280;22982;42.848;25.468;2023-01-31T11:05:57;95778.56;;;2.74;89.60
37068;BME280;22982;42.848;25.468;2023-01-31T11:11:06;95754.22;;;3.02;88.18
37068;BME280;22982;42.848;25.468;2023-01-31T11:16:10;95756.56;;;2.62;89.84
37068;BME280;22982;42.848;25.468;2023-01-31T11:21:23;95761.31;;;2.97;90.03
37068;BME280;22982;42.848;25.468;2023-01-31T11:26:37;95757.59;;;3.04;88.03
37068;BME280;22982;42.848;25.468;2023-01-31T11:31:42;95780.78;;;2.83;90.45
37068;BME280;22982;42.848;25.468;2023-01-31T11:36:46;95773.84;;;2.85;89.32
37068;BME280;22982;42.848;25.468;2023-01-31T11:56:54;95759.16;;;3.93;83.56
37068;BME280;22982;42.848;25.468;2023-01-31T12:01:59;95771.06;;;3.56;83.94
37068;BME280;22982;42.848;25.468;2023-01-31T12:07:07;95780.41;;;3.38;85.52
37068;BME280;22982;42.848;25.468;2023-01-31T12:12:42;95770.22;;;3.12;84.34
37068;BME280;22982;42.848;25.468;2023-01-31T12:17:48;95777.28;;;3.08;85.29
37068;BME280;22982;42.848;25.468;2023-01-31T12:38:42;95773.47;;;3.39;87.08
37068;BME280;22982;42.848;25.468;2023-01-31T12:49:29;95785.03;;;3.74;85.66
37068;BME280;22982;42.848;25.468;2023-01-31T13:10:44;95786.38;;;3.40;86.28
37068;BME280;22982;42.848;25.468;2023-01-31T13:15:52;95799.25;;;2.98;88.86
37068;BME280;22982;42.848;25.468;2023-01-31T13:21:00;95785.13;;;2.83;90.79
37068;BME280;22982;42.848;25.468;2023-01-31T13:26:19;95806.94;;;2.77;92.45
37068;BME280;22982;42.848;25.468;2023-01-31T13:31:41;95814.53;;;2.82;92.99
37068;BME280;22982;42.848;25.468;2023-01-31T13:37:03;95803.34;;;3.03;92.16
37068;BME280;22982;42.848;25.468;2023-01-31T13:42:11;95794.28;;;3.15;91.34
37068;BME280;22982;42.848;25.468;2023-01-31T13:47:20;95787.47;;;3.35;90.40
37068;BME280;22982;42.848;25.468;2023-01-31T13:52:40;95809.50;;;3.23;91.01
37068;BME280;22982;42.848;25.468;2023-01-31T13:57:51;95811.06;;;3.05;92.23
37068;BME280;22982;42.848;25.468;2023-01-31T14:03:17;95829.25;;;2.31;100.00
37068;BME280;22982;42.848;25.468;2023-01-31T14:18:42;95842.53;;;1.70;100.00
37068;BME280;22982;42.848;25.468;2023-01-31T14:23:45;95832.00;;;1.48;100.00
37068;BME280;22982;42.848;25.468;2023-01-31T14:28:49;95827.41;;;1.58;100.00
37068;BME280;22982;42.848;25.468;2023-01-31T14:33:53;95832.59;;;1.58;100.00
37068;BME280;22982;42.848;25.468;2023-01-31T14:39:17;95848.44;;;1.74;100.00
37068;BME280;22982;42.848;25.468;2023-01-31T14:44:49;95859.81;;;1.95;100.00
37068;BME280;22982;42.848;25.468;2023-01-31T14:55:20;95882.38;;;1.63;100.00
37068;BME280;22982;42.848;25.468;2023-01-31T15:21:27;95914.00;;;1.43;100.00
37068;BME280;22982;42.848;25.468;2023-01-31T15:26:32;95912.59;;;1.32;100.00
37068;BME280;22982;42.848;25.468;2023-01-31T15:31:40;95929.50;;;1.43;100.00
37068;BME280;22982;42.848;25.468;2023-01-31T15:37:05;95931.22;;;1.42;100.00
37068;BME280;22982;42.848;25.468;2023-01-31T15:42:27;95915.53;;;1.20;100.00
37068;BME280;22982;42.848;25.468;2023-01-31T15:47:31;95928.50;;;1.17;100.00
37068;BME280;22982;42.848;25.468;2023-01-31T15:52:33;95946.13;;;1.34;100.00
37068;BME280;22982;42.848;25.468;2023-01-31T15:57:49;95945.44;;;1.27;100.00
37068;BME280;22982;42.848;25.468;2023-01-31T16:02:59;95951.28;;;1.34;100.00
37068;BME280;22982;42.848;25.468;2023-01-31T16:08:15;95958.31;;;1.29;100.00
37068;BME280;22982;42.848;25.468;2023-01-31T16:13:20;95943.94;;;1.20;100.00
37068;BME280;22982;42.848;25.468;2023-01-31T16:18:23;95958.53;;;1.21;100.00
37068;BME280;22982;42.848;25.468;2023-01-31T16:23:30;95977.44;;;1.23;100.00
37068;BME280;22982;42.848;25.468;2023-01-31T16:28:44;95973.44;;;1.43;100.00
37068;BME280;22982;42.848;25.468;2023-01-31T16:33:55;95994.81;;;1.46;100.00
37068;BME280;22982;42.848;25.468;2023-01-31T16:39:04;95984.13;;;1.59;100.00
37068;BME280;22982;42.848;25.468;2023-01-31T16:44:12;95985.13;;;1.55;100.00
37068;BME280;22982;42.848;25.468;2023-01-31T16:49:18;95987.94;;;1.47;100.00
37068;BME280;22982;42.848;25.468;2023-01-31T16:54:29;95993.91;;;1.49;100.00
37068;BME280;22982;42.848;25.468;2023-01-31T17:04:40;95993.81;;;1.52;100.00
37068;BME280;22982;42.848;25.468;2023-01-31T17:09:44;95999.88;;;1.51;100.00
37068;BME280;22982;42.848;25.468;2023-01-31T17:14:47;96005.75;;;1.56;100.00
37068;BME280;22982;42.848;25.468;2023-01-31T17:19:49;96012.44;;;1.63;100.00
37068;BME280;22982;42.848;25.468;2023-01-31T17:24:52;96004.16;;;1.52;100.00
37068;BME280;22982;42.848;25.468;2023-01-31T17:29:54;96011.75;;;1.57;100.00
37068;BME280;22982;42.848;25.468;2023-01-31T17:34:56;96011.81;;;1.55;100.00
37068;BME280;22982;42.848;25.468;2023-01-31T17:39:59;96001.75;;;1.46;100.00
37068;BME280;22982;42.848;25.468;2023-01-31T17:45:01;96041.66;;;1.65;100.00
37068;BME280;22982;42.848;25.468;2023-01-31T17:50:04;96000.66;;;1.53;100.00
37068;BME280;22982;42.848;25.468;2023-01-31T17:55:06;96045.50;;;1.82;100.00
37068;BME280;22982;42.848;25.468;2023-01-31T18:00:12;96046.22;;;1.87;100.00
37068;BME280;22982;42.848;25.468;2023-01-31T18:05:15;96033.28;;;1.87;100.00
37068;BME280;22982;42.848;25.468;2023-01-31T18:10:30;96038.78;;;1.76;100.00
37068;BME280;22982;42.848;25.468;2023-01-31T18:15:33;96038.47;;;1.87;100.00
37068;BME280;22982;42.848;25.468;2023-01-31T18:20:38;96047.31;;;1.78;100.00
37068;BME280;22982;42.848;25.468;2023-01-31T18:25:40;96058.19;;;1.89;100.00
37068;BME280;22982;42.848;25.468;2023-01-31T18:30:43;96044.91;;;1.74;100.00
37068;BME280;22982;42.848;25.468;2023-01-31T18:35:57;96060.41;;;1.74;100.00
37068;BME280;22982;42.848;25.468;2023-01-31T18:41:04;96051.94;;;1.68;100.00
37068;BME280;22982;42.848;25.468;2023-01-31T18:46:08;96056.47;;;1.60;100.00
37068;BME280;22982;42.848;25.468;2023-01-31T18:51:14;96049.63;;;1.26;100.00
37068;BME280;22982;42.848;25.468;2023-01-31T18:56:18;96080.47;;;1.32;100.00
37068;BME280;22982;42.848;25.468;2023-01-31T19:01:23;96098.09;;;1.18;100.00
37068;BME280;22982;42.848;25.468;2023-01-31T19:06:27;96065.34;;;0.86;100.00
37068;BME280;22982;42.848;25.468;2023-01-31T19:11:31;96088.13;;;1.03;100.00
37068;BME280;22982;42.848;25.468;2023-01-31T19:16:36;96092.28;;;0.74;100.00
37068;BME280;22982;42.848;25.468;2023-01-31T19:21:41;96086.16;;;0.80;100.00
37068;BME280;22982;42.848;25.468;2023-01-31T19:26:43;96099.06;;;0.80;100.00
37068;BME280;22982;42.848;25.468;2023-01-31T19:31:46;96090.53;;;0.76;100.00
37068;BME280;22982;42.848;25.468;2023-01-31T19:36:49;96093.91;;;0.80;100.00
37068;BME280;22982;42.848;25.468;2023-01-31T19:41:51;96097.03;;;0.92;100.00
37068;BME280;22982;42.848;25.468;2023-01-31T19:46:53;96102.19;;;0.92;100.00
37068;BME280;22982;42.848;25.468;2023-01-31T19:51:56;96101.44;;;0.87;100.00
37068;BME280;22982;42.848;25.468;2023-01-31T19:56:58;96108.34;;;0.87;100.00
37068;BME280;22982;42.848;25.468;2023-01-31T20:02:00;96108.66;;;0.74;100.00
37068;BME280;22982;42.848;25.468;2023-01-31T20:07:04;96116.41;;;0.73;100.00
37068;BME280;22982;42.848;25.468;2023-01-31T20:12:06;96130.31;;;0.67;100.00
37068;BME280;22982;42.848;25.468;2023-01-31T20:17:08;96134.53;;;0.70;100.00
37068;BME280;22982;42.848;25.468;2023-01-31T20:22:10;96130.41;;;0.63;100.00
37068;BME280;22982;42.848;25.468;2023-01-31T20:27:13;96143.28;;;0.64;100.00
37068;BME280;22982;42.848;25.468;2023-01-31T20:32:15;96137.41;;;0.57;100.00
37068;BME280;22982;42.848;25.468;2023-01-31T20:37:18;96139.06;;;0.62;100.00
37068;BME280;22982;42.848;25.468;2023-01-31T20:42:21;96132.13;;;0.64;100.00
37068;BME280;22982;42.848;25.468;2023-01-31T20:47:26;96142.22;;;0.73;100.00
37068;BME280;22982;42.848;25.468;2023-01-31T20:52:28;96155.78;;;0.81;100.00
37068;BME280;22982;42.848;25.468;2023-01-31T20:57:31;96157.56;;;0.79;100.00
37068;BME280;22982;42.848;25.468;2023-01-31T21:02:38;96131.25;;;0.63;100.00
37068;BME280;22982;42.848;25.468;2023-01-31T21:07:40;96164.66;;;0.71;100.00
37068;BME280;22982;42.848;25.468;2023-01-31T21:12:42;96165.44;;;0.73;100.00
37068;BME280;22982;42.848;25.468;2023-01-31T21:17:45;96173.13;;;0.76;100.00
37068;BME280;22982;42.848;25.468;2023-01-31T21:22:47;96157.84;;;0.67;100.00
37068;BME280;22982;42.848;25.468;2023-01-31T21:27:49;96159.59;;;0.65;100.00
37068;BME280;22982;42.848;25.468;2023-01-31T21:32:51;96168.28;;;0.62;100.00
37068;BME280;22982;42.848;25.468;2023-01-31T21:37:55;96170.19;;;0.52;100.00
37068;BME280;22982;42.848;25.468;2023-01-31T21:42:57;96173.75;;;0.48;100.00
37068;BME280;22982;42.848;25.468;2023-01-31T21:48:00;96191.09;;;0.42;100.00
37068;BME280;22982;42.848;25.468;2023-01-31T21:53:21;96188.34;;;0.49;100.00
37068;BME280;22982;42.848;25.468;2023-01-31T21:58:23;96165.34;;;0.40;100.00
37068;BME280;22982;42.848;25.468;2023-01-31T22:03:25;96176.28;;;0.50;100.00
37068;BME280;22982;42.848;25.468;2023-01-31T22:08:27;96169.34;;;0.52;100.00
37068;BME280;22982;42.848;25.468;2023-01-31T22:13:31;96165.03;;;0.52;100.00
37068;BME280;22982;42.848;25.468;2023-01-31T22:18:34;96195.06;;;0.56;100.00
37068;BME280;22982;42.848;25.468;2023-01-31T22:23:38;96188.16;;;0.57;100.00
37068;BME280;22982;42.848;25.468;2023-01-31T22:28:41;96198.69;;;0.48;100.00
37068;BME280;22982;42.848;25.468;2023-01-31T22:33:44;96188.75;;;0.31;100.00
37068;BME280;22982;42.848;25.468;2023-01-31T22:38:46;96217.03;;;0.34;100.00
37068;BME280;22982;42.848;25.468;2023-01-31T22:43:49;96204.69;;;0.48;100.00
37068;BME280;22982;42.848;25.468;2023-01-31T22:48:53;96209.66;;;0.57;100.00
37068;BME280;22982;42.848;25.468;2023-01-31T22:53:56;96208.56;;;0.68;100.00
37068;BME280;22982;42.848;25.468;2023-01-31T22:59:01;96205.94;;;0.71;100.00
37068;BME280;22982;42.848;25.468;2023-01-31T23:04:07;96215.56;;;0.63;100.00
37068;BME280;22982;42.848;25.468;2023-01-31T23:09:09;96188.09;;;0.62;100.00
37068;BME280;22982;42.848;25.468;2023-01-31T23:14:12;96192.41;;;0.60;100.00
37068;BME280;22982;42.848;25.468;2023-01-31T23:19:14;96204.22;;;0.70;100.00
37068;BME280;22982;42.848;25.468;2023-01-31T23:24:17;96211.47;;;0.52;100.00
37068;BME280;22982;42.848;25.468;2023-01-31T23:29:20;96213.88;;;0.62;100.00
37068;BME280;22982;42.848;25.468;2023-01-31T23:34:22;96226.38;;;0.80;100.00
37068;BME280;22982;42.848;25.468;2023-01-31T23:39:24;96216.25;;;0.71;100.00
37068;BME280;22982;42.848;25.468;2023-01-31T23:44:26;96204.38;;;0.64;100.00
37068;BME280;22982;42.848;25.468;2023-01-31T23:49:28;96220.41;;;0.78;100.00
37068;BME280;22982;42.848;25.468;2023-01-31T23:54:31;96200.09;;;0.63;100.00
37068;BME280;22982;42.848;25.468;2023-01-31T23:59:33;96216.22;;;0.72;100.00
